createdAt,value
2023-01-07T00:12:14.121Z,12.40
2023-01-07T00:27:16.700Z,12.10
2023-01-07T00:42:39.153Z,11.80
2023-01-07T00:57:47.176Z,12.10
2023-01-07T01:12:50.390Z,12.20
2023-01-07T01:27:54.219Z,12.30
2023-01-07T01:42:56.910Z,12.20
2023-01-07T01:58:03.787Z,12.00
2023-01-07T02:13:17.267Z,12.20
2023-01-07T02:28:59.414Z,12.10
2023-01-07T02:44:26.553Z,11.70
2023-01-07T02:59:57.091Z,11.70
2023-01-07T03:15:05.333Z,11.70
2023-01-07T03:30:12.658Z,11.80
2023-01-07T03:45:18.115Z,11.60
2023-01-07T04:00:20.841Z,11.50
2023-01-07T04:15:32.018Z,11.40
2023-01-07T04:30:35.565Z,11.40
2023-01-07T04:45:38.373Z,11.40
2023-01-07T05:00:41.198Z,11.30
2023-01-07T05:15:44.580Z,11.20
2023-01-07T05:30:48.169Z,11.30
2023-01-07T05:45:51.204Z,11.30
2023-01-07T06:00:54.339Z,11.20
2023-01-07T06:16:09.383Z,11.30
2023-01-07T06:31:12.432Z,11.40
2023-01-07T06:46:15.361Z,11.70
2023-01-07T07:01:18.238Z,12.00
2023-01-07T07:16:22.596Z,12.20
2023-01-07T07:31:25.397Z,12.30
2023-01-07T07:46:28.520Z,12.30
2023-01-07T08:01:31.134Z,11.80
2023-01-07T08:16:34.502Z,11.60
2023-01-07T08:31:37.252Z,11.70
2023-01-07T08:46:41.284Z,11.70
2023-01-07T09:01:44.168Z,11.60
2023-01-07T09:16:46.810Z,11.60
2023-01-07T09:31:49.788Z,11.70
2023-01-07T09:46:55.213Z,12.00
2023-01-07T10:02:24.329Z,12.00
2023-01-07T10:17:40.092Z,12.20
2023-01-07T10:32:42.860Z,12.20
2023-01-07T10:47:54.431Z,11.90
2023-01-07T11:02:59.638Z,11.70
2023-01-07T11:18:06.963Z,12.10
2023-01-07T11:33:22.886Z,12.30
2023-01-07T11:49:03.996Z,12.80
2023-01-07T12:04:42.382Z,12.60
2023-01-07T12:20:00.164Z,12.80
2023-01-07T12:35:14.482Z,12.80
2023-01-07T12:50:24.285Z,12.60
2023-01-07T13:05:30.770Z,12.40
2023-01-07T13:20:39.244Z,12.20
2023-01-07T13:35:42.161Z,12.10
2023-01-07T13:51:05.587Z,12.00
2023-01-07T14:06:20.518Z,12.20
2023-01-07T14:21:29.082Z,12.10
2023-01-07T14:37:09.027Z,11.90
2023-01-07T14:52:38.915Z,11.70
2023-01-07T15:07:42.578Z,11.70
2023-01-07T15:23:07.169Z,11.70
2023-01-07T15:38:37.549Z,11.90
2023-01-07T15:53:44.818Z,11.70
2023-01-07T16:08:47.653Z,11.40
2023-01-07T16:23:50.280Z,11.30
2023-01-07T16:39:00.044Z,11.70
2023-01-07T16:54:26.752Z,11.40
2023-01-07T17:09:38.318Z,11.40
2023-01-07T17:24:41.146Z,11.30
2023-01-07T17:39:44.825Z,11.40
2023-01-07T17:54:47.628Z,11.40
2023-01-07T18:09:50.309Z,11.40
2023-01-07T18:24:53.155Z,11.30
2023-01-07T18:40:02.090Z,11.30
2023-01-07T18:55:05.297Z,11.40
2023-01-07T19:10:08.838Z,11.50
2023-01-07T19:25:11.516Z,11.50
2023-01-07T19:40:14.257Z,11.30
2023-01-07T19:55:17.115Z,11.20
2023-01-07T20:10:20.052Z,11.20
2023-01-07T20:25:23.315Z,10.80
2023-01-07T20:40:26.083Z,10.90
2023-01-07T20:55:28.786Z,10.90
2023-01-07T21:10:31.869Z,10.90
2023-01-07T21:25:34.885Z,11.20
2023-01-07T21:40:39.352Z,11.10
2023-01-07T21:55:42.099Z,11.20
2023-01-07T22:10:48.430Z,11.40
2023-01-07T22:25:51.355Z,11.00
2023-01-07T22:40:56.481Z,11.00
2023-01-07T22:56:00.215Z,11.10
2023-01-07T23:11:03.361Z,11.20
2023-01-07T23:26:06.044Z,10.90
2023-01-07T23:41:10.706Z,11.40
2023-01-07T23:56:14.365Z,11.30
